createdAt,value
2018-12-16T00:01:31.726Z,20.97
2018-12-16T00:04:00.526Z,20.53
2018-12-16T00:06:29.114Z,20.97
2018-12-16T00:08:57.811Z,22.30
2018-12-16T00:13:50.623Z,20.13
2018-12-16T00:16:19.219Z,21.40
2018-12-16T00:18:47.911Z,20.13
2018-12-16T00:21:16.519Z,22.60
2018-12-16T00:23:45.108Z,21.40
2018-12-16T00:26:14.136Z,20.57
2018-12-16T00:28:42.710Z,22.57
2018-12-16T00:31:11.296Z,20.97
2018-12-16T00:33:39.878Z,21.83
2018-12-16T00:36:08.658Z,21.27
2018-12-16T00:38:37.264Z,21.67
2018-12-16T00:41:06.069Z,22.30
2018-12-16T00:43:34.632Z,22.63
2018-12-16T00:46:03.264Z,25.63
2018-12-16T00:48:31.834Z,25.00
2018-12-16T00:51:00.639Z,22.27
2018-12-16T00:53:29.226Z,22.43
2018-12-16T00:55:58.041Z,25.20
2018-12-16T00:58:26.673Z,24.57
2018-12-16T01:00:55.627Z,22.30
2018-12-16T01:03:24.192Z,22.60
2018-12-16T01:05:53.107Z,21.63
2018-12-16T01:08:21.684Z,22.70
2018-12-16T01:10:50.300Z,20.23
2018-12-16T01:13:18.872Z,20.00
2018-12-16T01:15:47.718Z,20.53
2018-12-16T01:18:16.277Z,19.70
2018-12-16T01:20:44.879Z,19.10
2018-12-16T01:23:13.483Z,19.57
2018-12-16T01:25:42.074Z,19.03
2018-12-16T01:28:10.658Z,20.30
2018-12-16T01:30:39.246Z,20.77
2018-12-16T01:33:07.836Z,19.93
2018-12-16T01:35:36.565Z,20.33
2018-12-16T01:38:05.268Z,18.23
2018-12-16T01:40:33.883Z,19.67
2018-12-16T01:43:02.459Z,19.80
2018-12-16T01:45:31.329Z,18.77
2018-12-16T01:47:59.906Z,19.10
2018-12-16T01:50:28.508Z,20.40
2018-12-16T01:52:57.043Z,19.23
2018-12-16T01:55:25.879Z,19.30
2018-12-16T01:57:54.514Z,20.33
2018-12-16T02:00:23.168Z,20.47
2018-12-16T02:02:51.774Z,19.47
2018-12-16T02:05:20.738Z,17.77
2018-12-16T02:07:49.309Z,18.17
2018-12-16T02:10:18.050Z,19.37
2018-12-16T02:12:46.672Z,17.77
2018-12-16T02:15:15.591Z,17.67
2018-12-16T02:17:44.159Z,18.10
2018-12-16T02:20:12.873Z,17.30
2018-12-16T02:22:41.430Z,17.47
2018-12-16T02:25:10.272Z,17.50
2018-12-16T02:27:38.843Z,17.03
2018-12-16T02:30:09.628Z,18.30
2018-12-16T02:32:38.303Z,17.43
2018-12-16T02:35:06.912Z,17.50
2018-12-16T02:37:35.496Z,17.97
2018-12-16T02:40:04.506Z,17.97
2018-12-16T02:42:33.283Z,18.10
2018-12-16T02:45:01.944Z,19.93
2018-12-16T02:47:30.504Z,17.60
2018-12-16T02:49:59.116Z,17.57
2018-12-16T02:52:27.671Z,18.97
2018-12-16T02:54:56.246Z,18.47
2018-12-16T02:57:24.821Z,17.70
2018-12-16T02:59:53.638Z,18.40
2018-12-16T03:02:22.190Z,17.07
2018-12-16T03:04:50.772Z,18.40
2018-12-16T03:07:19.349Z,17.20
2018-12-16T03:09:48.205Z,18.17
2018-12-16T03:12:16.750Z,19.10
2018-12-16T03:14:45.522Z,17.87
2018-12-16T03:17:14.069Z,19.10
2018-12-16T03:19:42.802Z,17.37
2018-12-16T03:22:11.389Z,17.80
2018-12-16T03:24:40.207Z,17.50
2018-12-16T03:27:08.813Z,17.47
2018-12-16T03:29:37.391Z,17.57
2018-12-16T03:32:05.967Z,18.00
2018-12-16T03:34:34.846Z,18.27
2018-12-16T03:37:03.407Z,20.13
2018-12-16T03:39:32.197Z,18.23
2018-12-16T03:42:00.937Z,18.27
2018-12-16T03:44:29.572Z,17.63
2018-12-16T03:46:58.162Z,17.10
2018-12-16T03:49:26.902Z,18.13
2018-12-16T03:51:55.467Z,18.40
2018-12-16T03:54:24.365Z,17.60
2018-12-16T03:56:52.938Z,16.60
2018-12-16T03:59:21.680Z,16.63
2018-12-16T04:01:57.226Z,16.80
2018-12-16T04:04:26.609Z,15.77
2018-12-16T04:06:55.467Z,16.77
2018-12-16T04:09:24.301Z,17.27
2018-12-16T04:11:52.963Z,16.13
2018-12-16T04:14:21.764Z,15.43
2018-12-16T04:16:50.313Z,15.23
2018-12-16T04:19:19.144Z,15.53
2018-12-16T04:21:47.671Z,15.47
2018-12-16T04:24:16.700Z,15.47
2018-12-16T04:26:45.261Z,16.17
2018-12-16T04:29:13.851Z,17.17
2018-12-16T04:31:42.468Z,14.63
2018-12-16T04:34:11.046Z,16.23
2018-12-16T04:36:39.637Z,16.40
2018-12-16T04:39:08.254Z,15.90
2018-12-16T04:41:36.895Z,16.30
2018-12-16T04:44:07.188Z,17.40
2018-12-16T04:46:35.986Z,18.80
2018-12-16T04:49:05.007Z,17.87
2018-12-16T04:51:33.586Z,17.97
2018-12-16T04:54:02.171Z,19.07
2018-12-16T04:56:30.741Z,17.83
2018-12-16T04:58:59.326Z,17.33
2018-12-16T05:01:27.908Z,15.80
2018-12-16T05:03:56.790Z,15.93
2018-12-16T05:06:25.402Z,16.13
2018-12-16T05:08:54.156Z,16.27
2018-12-16T05:11:22.700Z,17.30
2018-12-16T05:13:51.316Z,15.40
2018-12-16T05:16:19.897Z,18.00
2018-12-16T05:18:48.732Z,16.67
2018-12-16T05:21:17.310Z,17.20
2018-12-16T05:23:46.109Z,17.23
2018-12-16T05:26:14.718Z,17.27
2018-12-16T05:28:43.586Z,18.80
2018-12-16T05:31:12.167Z,17.27
2018-12-16T05:33:40.949Z,18.57
2018-12-16T05:36:09.528Z,17.63
2018-12-16T05:38:38.149Z,18.17
2018-12-16T05:41:06.752Z,19.60
2018-12-16T05:43:35.399Z,17.80
2018-12-16T05:46:03.982Z,17.60
2018-12-16T05:48:32.621Z,19.27
2018-12-16T05:51:01.169Z,17.07
2018-12-16T05:53:29.944Z,19.17
2018-12-16T05:55:58.523Z,19.17
2018-12-16T05:58:27.110Z,18.97
2018-12-16T06:00:55.676Z,18.77
2018-12-16T06:03:24.302Z,18.63
2018-12-16T06:05:52.988Z,18.23
2018-12-16T06:08:21.646Z,18.70
2018-12-16T06:10:50.252Z,18.80
2018-12-16T06:13:18.949Z,19.07
2018-12-16T06:15:47.548Z,23.27
2018-12-16T06:18:16.160Z,21.80
2018-12-16T06:20:44.734Z,21.07
2018-12-16T06:23:13.419Z,22.30
2018-12-16T06:25:41.998Z,21.00
2018-12-16T06:28:10.704Z,20.10
2018-12-16T06:30:39.690Z,20.50
2018-12-16T06:33:08.604Z,20.73
2018-12-16T06:35:37.188Z,21.60
2018-12-16T06:38:05.967Z,19.97
2018-12-16T06:40:34.569Z,70.53
2018-12-16T06:43:03.347Z,38.70
2018-12-16T06:45:31.922Z,25.07
2018-12-16T06:48:00.709Z,21.37
2018-12-16T06:50:29.256Z,21.30
2018-12-16T06:52:58.112Z,21.67
2018-12-16T06:55:26.695Z,44.27
2018-12-16T06:57:55.634Z,36.50
2018-12-16T07:00:24.220Z,51.83
2018-12-16T07:02:56.007Z,37.57
2018-12-16T07:05:24.592Z,31.70
2018-12-16T07:07:53.429Z,44.30
2018-12-16T07:10:22.040Z,37.50
2018-12-16T07:12:51.025Z,26.47
2018-12-16T07:15:19.584Z,22.97
2018-12-16T07:17:48.489Z,24.27
2018-12-16T07:20:17.086Z,24.57
2018-12-16T07:22:47.149Z,24.80
2018-12-16T07:25:16.000Z,23.23
2018-12-16T07:27:44.771Z,39.47
2018-12-16T07:30:13.343Z,37.00
2018-12-16T07:32:42.180Z,34.53
2018-12-16T07:35:10.798Z,34.77
2018-12-16T07:37:40.792Z,35.87
2018-12-16T07:40:09.614Z,42.60
2018-12-16T07:42:38.407Z,45.10
2018-12-16T07:45:07.732Z,39.13
2018-12-16T07:47:36.565Z,37.87
2018-12-16T07:50:06.624Z,41.30
2018-12-16T07:52:35.745Z,34.17
2018-12-16T07:55:04.763Z,31.10
2018-12-16T07:57:33.851Z,27.00
2018-12-16T08:00:02.417Z,25.47
2018-12-16T08:02:31.352Z,24.83
2018-12-16T08:04:59.903Z,25.73
2018-12-16T08:07:28.584Z,22.87
2018-12-16T08:09:57.185Z,26.07
2018-12-16T08:12:26.223Z,27.03
2018-12-16T08:14:54.893Z,29.57
2018-12-16T08:17:23.861Z,29.13
2018-12-16T08:19:52.431Z,29.23
2018-12-16T08:22:21.141Z,29.30
2018-12-16T08:24:49.708Z,29.77
2018-12-16T08:27:18.472Z,31.57
2018-12-16T08:29:47.236Z,35.67
2018-12-16T08:32:16.033Z,36.50
2018-12-16T08:34:44.595Z,39.17
2018-12-16T08:37:13.333Z,38.47
2018-12-16T08:39:42.573Z,35.63
2018-12-16T08:42:11.621Z,35.97
2018-12-16T08:44:40.173Z,34.27
2018-12-16T08:47:08.786Z,36.20
2018-12-16T08:49:37.379Z,38.90
2018-12-16T08:52:06.276Z,44.53
2018-12-16T08:54:35.225Z,41.77
2018-12-16T08:57:04.001Z,43.20
2018-12-16T08:59:32.572Z,31.97
2018-12-16T09:02:01.167Z,50.93
2018-12-16T09:04:29.718Z,49.27
2018-12-16T09:06:58.535Z,47.50
2018-12-16T09:09:27.609Z,43.50
2018-12-16T09:11:56.227Z,45.03
2018-12-16T09:14:24.886Z,40.80
2018-12-16T09:16:53.767Z,42.30
2018-12-16T09:19:22.448Z,42.57
2018-12-16T09:21:51.253Z,45.27
2018-12-16T09:24:19.811Z,42.87
2018-12-16T09:26:48.523Z,40.87
2018-12-16T09:29:17.127Z,46.00
2018-12-16T09:31:46.864Z,45.00
2018-12-16T09:34:15.645Z,43.23
2018-12-16T09:36:44.608Z,42.77
2018-12-16T09:39:13.395Z,40.77
2018-12-16T09:41:42.508Z,103.63
2018-12-16T09:44:11.096Z,47.77
2018-12-16T09:46:40.052Z,39.67
2018-12-16T09:49:08.652Z,35.27
2018-12-16T09:51:37.682Z,41.63
2018-12-16T09:54:06.277Z,41.00
2018-12-16T09:56:34.931Z,43.67
2018-12-16T09:59:03.590Z,46.77
2018-12-16T10:01:32.445Z,41.70
2018-12-16T10:04:01.198Z,48.00
2018-12-16T10:06:30.154Z,47.27
2018-12-16T10:08:58.748Z,48.13
2018-12-16T10:11:27.404Z,48.60
2018-12-16T10:13:55.988Z,47.07
2018-12-16T10:16:24.838Z,49.90
2018-12-16T10:18:53.454Z,50.63
2018-12-16T10:21:22.409Z,52.60
2018-12-16T10:23:51.411Z,48.67
2018-12-16T10:26:20.300Z,48.23
2018-12-16T10:28:49.201Z,46.23
2018-12-16T10:31:17.914Z,48.47
2018-12-16T10:33:46.729Z,49.90
2018-12-16T10:36:15.656Z,50.47
2018-12-16T10:38:44.267Z,51.03
2018-12-16T10:41:13.088Z,51.47
2018-12-16T10:43:41.731Z,51.97
2018-12-16T10:46:10.593Z,51.27
2018-12-16T10:48:39.655Z,46.53
2018-12-16T10:51:08.449Z,40.10
2018-12-16T10:53:37.159Z,41.30
2018-12-16T10:56:06.257Z,42.10
2018-12-16T10:58:34.932Z,42.37
2018-12-16T11:01:09.120Z,45.00
2018-12-16T11:03:38.022Z,47.30
2018-12-16T11:06:06.760Z,49.00
2018-12-16T11:08:35.584Z,48.13
2018-12-16T11:11:04.606Z,50.27
2018-12-16T11:13:33.273Z,51.30
2018-12-16T11:16:02.345Z,51.47
2018-12-16T11:18:31.220Z,53.00
2018-12-16T11:21:00.061Z,54.83
2018-12-16T11:23:28.921Z,52.70
2018-12-16T11:25:58.188Z,53.60
2018-12-16T11:28:26.883Z,57.73
2018-12-16T11:30:55.791Z,55.93
2018-12-16T11:33:24.581Z,54.47
2018-12-16T11:35:53.566Z,57.83
2018-12-16T11:38:22.428Z,56.63
2018-12-16T11:40:51.328Z,56.30
2018-12-16T11:43:19.954Z,62.73
2018-12-16T11:45:49.305Z,57.37
2018-12-16T11:48:18.311Z,58.40
2018-12-16T11:50:47.676Z,62.67
2018-12-16T11:53:16.459Z,59.87
2018-12-16T11:55:45.952Z,47.43
2018-12-16T11:58:14.721Z,47.60
2018-12-16T12:00:43.659Z,53.20
2018-12-16T12:03:12.685Z,46.80
2018-12-16T12:05:41.974Z,42.80
2018-12-16T12:08:10.876Z,39.10
2018-12-16T12:10:39.985Z,40.13
2018-12-16T12:13:08.596Z,41.90
2018-12-16T12:15:37.588Z,39.53
2018-12-16T12:18:06.292Z,41.30
2018-12-16T12:20:35.463Z,40.93
2018-12-16T12:23:04.469Z,37.00
2018-12-16T12:25:33.375Z,43.13
2018-12-16T12:28:01.989Z,43.77
2018-12-16T12:30:30.883Z,39.70
2018-12-16T12:32:59.803Z,36.80
2018-12-16T12:35:28.741Z,37.47
2018-12-16T12:37:57.563Z,38.80
2018-12-16T12:40:26.239Z,38.67
2018-12-16T12:42:54.831Z,39.33
2018-12-16T12:45:23.693Z,43.50
2018-12-16T12:47:52.285Z,40.20
2018-12-16T12:50:21.236Z,41.70
2018-12-16T12:52:49.862Z,36.17
2018-12-16T12:55:18.592Z,37.07
2018-12-16T12:57:47.420Z,39.17
2018-12-16T13:00:16.189Z,36.40
2018-12-16T13:02:44.928Z,36.10
2018-12-16T13:05:13.630Z,37.23
2018-12-16T13:07:42.195Z,33.90
2018-12-16T13:10:12.679Z,34.90
2018-12-16T13:12:41.282Z,34.10
2018-12-16T13:15:09.893Z,36.37
2018-12-16T13:17:38.505Z,35.37
2018-12-16T13:20:07.827Z,35.43
2018-12-16T13:22:36.425Z,33.53
2018-12-16T13:25:16.455Z,33.87
2018-12-16T13:27:45.033Z,37.13
2018-12-16T13:30:14.037Z,39.10
2018-12-16T13:32:42.657Z,29.43
2018-12-16T13:35:11.638Z,28.27
2018-12-16T13:37:47.055Z,32.20
2018-12-16T13:40:15.999Z,29.40
2018-12-16T13:42:44.806Z,29.77
2018-12-16T13:45:13.948Z,28.23
2018-12-16T13:47:42.777Z,26.07
2018-12-16T13:50:11.536Z,19.10
2018-12-16T13:52:40.104Z,18.63
2018-12-16T13:55:09.054Z,20.07
2018-12-16T13:57:38.250Z,20.17
2018-12-16T14:00:08.575Z,20.30
2018-12-16T14:02:37.229Z,18.87
2018-12-16T14:05:06.740Z,18.90
2018-12-16T14:07:35.528Z,20.77
2018-12-16T14:10:04.860Z,23.87
2018-12-16T14:12:33.721Z,21.90
2018-12-16T14:15:02.580Z,19.67
2018-12-16T14:17:31.346Z,20.70
2018-12-16T14:20:01.580Z,19.30
2018-12-16T14:22:30.542Z,19.50
2018-12-16T14:24:59.467Z,20.60
2018-12-16T14:27:28.242Z,20.17
2018-12-16T14:29:57.203Z,17.83
2018-12-16T14:32:25.889Z,20.17
2018-12-16T14:34:54.905Z,21.43
2018-12-16T14:37:23.968Z,17.33
2018-12-16T14:39:53.068Z,19.93
2018-12-16T14:42:21.765Z,21.73
2018-12-16T14:44:50.752Z,19.23
2018-12-16T14:47:19.450Z,22.73
2018-12-16T14:49:48.398Z,25.67
2018-12-16T14:52:17.139Z,27.53
2018-12-16T14:54:46.156Z,24.90
2018-12-16T14:57:14.886Z,25.83
2018-12-16T14:59:43.677Z,24.33
2018-12-16T15:02:12.358Z,25.07
2018-12-16T15:04:41.173Z,26.30
2018-12-16T15:07:10.580Z,25.87
2018-12-16T15:09:39.464Z,29.03
2018-12-16T15:12:08.235Z,27.80
2018-12-16T15:14:37.556Z,27.83
2018-12-16T15:17:06.279Z,25.07
2018-12-16T15:19:35.194Z,21.23
2018-12-16T15:22:04.040Z,19.93
2018-12-16T15:24:33.063Z,22.03
2018-12-16T15:27:01.669Z,22.13
2018-12-16T15:29:30.625Z,28.77
2018-12-16T15:31:59.464Z,32.77
2018-12-16T15:34:28.482Z,34.83
2018-12-16T15:36:57.110Z,42.10
2018-12-16T15:39:26.211Z,46.37
2018-12-16T15:41:54.800Z,49.30
2018-12-16T15:44:23.901Z,45.00
2018-12-16T15:46:52.603Z,41.77
2018-12-16T15:49:21.271Z,39.97
2018-12-16T15:51:49.905Z,43.47
2018-12-16T15:54:18.843Z,57.63
2018-12-16T15:56:47.804Z,56.73
2018-12-16T15:59:16.672Z,49.60
2018-12-16T16:01:45.253Z,49.60
2018-12-16T16:04:14.105Z,49.77
2018-12-16T16:06:42.863Z,68.57
2018-12-16T16:09:11.770Z,59.13
2018-12-16T16:11:40.385Z,56.73
2018-12-16T16:14:09.405Z,67.20
2018-12-16T16:16:38.226Z,60.67
2018-12-16T16:19:07.630Z,62.83
2018-12-16T16:21:36.299Z,64.13
2018-12-16T16:24:05.223Z,64.77
2018-12-16T16:26:33.963Z,66.07
2018-12-16T16:29:03.195Z,61.67
2018-12-16T16:31:32.712Z,60.37
2018-12-16T16:34:01.912Z,68.97
2018-12-16T16:36:30.620Z,61.70
2018-12-16T16:38:59.543Z,64.00
2018-12-16T16:41:28.136Z,51.53
2018-12-16T16:43:56.777Z,42.23
2018-12-16T16:46:25.350Z,43.80
2018-12-16T16:48:54.800Z,42.70
2018-12-16T16:51:23.480Z,43.87
2018-12-16T16:53:52.116Z,45.37
2018-12-16T16:56:23.082Z,44.47
2018-12-16T16:58:51.595Z,42.13
2018-12-16T17:01:20.199Z,44.70
2018-12-16T17:03:49.368Z,47.87
2018-12-16T17:06:17.904Z,46.17
2018-12-16T17:08:46.565Z,44.53
2018-12-16T17:11:15.839Z,44.53
2018-12-16T17:13:44.859Z,44.73
2018-12-16T17:16:13.482Z,44.70
2018-12-16T17:18:42.457Z,45.40
2018-12-16T17:21:11.837Z,48.30
2018-12-16T17:23:40.888Z,47.23
2018-12-16T17:26:09.761Z,47.97
2018-12-16T17:28:38.846Z,48.43
2018-12-16T17:31:07.615Z,44.63
2018-12-16T17:33:36.509Z,44.23
2018-12-16T17:36:05.081Z,43.50
2018-12-16T17:38:33.818Z,48.00
2018-12-16T17:41:02.388Z,49.07
2018-12-16T17:43:31.306Z,46.63
2018-12-16T17:45:59.863Z,50.60
2018-12-16T17:48:29.024Z,53.23
2018-12-16T17:50:57.636Z,56.30
2018-12-16T17:53:26.580Z,54.77
2018-12-16T17:55:55.409Z,53.03
2018-12-16T17:58:24.922Z,46.70
2018-12-16T18:00:53.775Z,44.93
2018-12-16T18:03:22.943Z,47.77
2018-12-16T18:05:51.586Z,51.07
2018-12-16T18:08:20.718Z,47.60
2018-12-16T18:10:49.318Z,41.27
2018-12-16T18:13:18.079Z,44.80
2018-12-16T18:15:46.773Z,49.00
2018-12-16T18:18:15.443Z,49.13
2018-12-16T18:20:44.030Z,49.63
2018-12-16T18:23:13.055Z,48.40
2018-12-16T18:25:41.656Z,48.10
2018-12-16T18:28:10.840Z,48.37
2018-12-16T18:30:39.801Z,48.00
2018-12-16T18:33:09.277Z,47.27
2018-12-16T18:35:38.096Z,47.43
2018-12-16T18:38:07.099Z,45.47
2018-12-16T18:40:35.906Z,49.37
2018-12-16T18:43:04.925Z,49.40
2018-12-16T18:45:33.564Z,48.80
2018-12-16T18:48:02.349Z,48.83
2018-12-16T18:50:31.016Z,49.87
2018-12-16T18:52:59.739Z,49.50
2018-12-16T18:55:28.560Z,48.33
2018-12-16T18:57:57.184Z,49.63
2018-12-16T19:00:25.960Z,53.20
2018-12-16T19:03:01.405Z,57.17
2018-12-16T19:05:30.175Z,59.40
2018-12-16T19:07:58.929Z,62.07
2018-12-16T19:10:27.631Z,68.77
2018-12-16T19:12:56.527Z,64.00
2018-12-16T19:15:25.107Z,60.83
2018-12-16T19:17:54.044Z,58.97
2018-12-16T19:20:22.649Z,51.43
2018-12-16T19:22:51.557Z,46.27
2018-12-16T19:25:20.321Z,47.93
2018-12-16T19:27:49.388Z,49.63
2018-12-16T19:30:18.112Z,47.30
2018-12-16T19:32:46.864Z,47.43
2018-12-16T19:35:15.498Z,47.73
2018-12-16T19:37:44.751Z,50.57
2018-12-16T19:40:13.532Z,52.43
2018-12-16T19:42:42.326Z,51.83
2018-12-16T19:45:10.915Z,51.80
2018-12-16T19:47:39.814Z,49.23
2018-12-16T19:50:09.434Z,46.43
2018-12-16T19:52:38.856Z,48.93
2018-12-16T19:55:08.110Z,51.30
2018-12-16T19:57:37.670Z,48.87
2018-12-16T20:00:07.509Z,47.07
2018-12-16T20:02:36.983Z,50.77
2018-12-16T20:05:08.565Z,49.47
2018-12-16T20:07:37.772Z,49.97
2018-12-16T20:10:06.976Z,53.03
2018-12-16T20:12:36.324Z,60.60
2018-12-16T20:15:06.348Z,76.50
2018-12-16T20:17:35.343Z,76.83
2018-12-16T20:20:04.792Z,64.77
2018-12-16T20:22:34.274Z,56.33
2018-12-16T20:25:03.572Z,55.33
2018-12-16T20:27:32.800Z,74.90
2018-12-16T20:30:02.474Z,84.77
2018-12-16T20:32:32.074Z,70.07
2018-12-16T20:35:01.367Z,92.30
2018-12-16T20:37:31.022Z,97.87
2018-12-16T20:40:00.426Z,93.00
2018-12-16T20:42:29.635Z,81.13
2018-12-16T20:44:58.705Z,83.90
2018-12-16T20:47:28.129Z,77.90
2018-12-16T20:49:57.433Z,78.83
2018-12-16T20:52:26.939Z,80.13
2018-12-16T20:54:55.923Z,73.20
2018-12-16T20:57:25.575Z,73.57
2018-12-16T20:59:54.970Z,71.97
2018-12-16T21:02:26.020Z,71.43
2018-12-16T21:04:55.843Z,72.27
2018-12-16T21:07:24.798Z,71.57
2018-12-16T21:09:53.891Z,69.50
2018-12-16T21:12:28.302Z,66.70
2018-12-16T21:15:02.509Z,81.27
2018-12-16T21:17:36.976Z,86.23
2018-12-16T21:20:06.322Z,82.27
2018-12-16T21:22:35.259Z,86.50
2018-12-16T21:25:04.233Z,84.87
2018-12-16T21:27:34.390Z,84.83
2018-12-16T21:30:03.342Z,85.17
2018-12-16T21:32:33.105Z,89.00
2018-12-16T21:35:01.705Z,87.07
2018-12-16T21:37:30.688Z,87.70
2018-12-16T21:39:59.413Z,95.57
2018-12-16T21:42:28.246Z,101.47
2018-12-16T21:44:56.941Z,102.93
2018-12-16T21:47:25.855Z,109.57
2018-12-16T21:49:54.447Z,113.00
2018-12-16T21:52:23.580Z,121.70
2018-12-16T21:54:52.383Z,119.03
2018-12-16T21:57:21.345Z,116.77
2018-12-16T21:59:50.070Z,123.73
2018-12-16T22:02:18.865Z,125.03
2018-12-16T22:04:47.546Z,126.67
2018-12-16T22:07:16.278Z,127.93
2018-12-16T22:09:44.916Z,129.77
2018-12-16T22:12:14.275Z,125.93
2018-12-16T22:14:43.320Z,119.27
2018-12-16T22:17:12.349Z,114.80
2018-12-16T22:19:41.396Z,109.97
2018-12-16T22:22:10.406Z,96.73
2018-12-16T22:24:39.643Z,96.63
2018-12-16T22:27:08.587Z,94.00
2018-12-16T22:29:37.330Z,92.43
2018-12-16T22:32:06.132Z,89.53
2018-12-16T22:34:34.914Z,85.07
2018-12-16T22:37:03.976Z,81.67
2018-12-16T22:39:32.793Z,80.33
2018-12-16T22:42:01.697Z,81.77
2018-12-16T22:44:31.294Z,79.97
2018-12-16T22:47:00.224Z,79.90
2018-12-16T22:49:28.867Z,79.17
2018-12-16T22:51:57.927Z,80.50
2018-12-16T22:54:26.575Z,75.47
2018-12-16T22:56:55.383Z,77.33
2018-12-16T22:59:24.064Z,77.57
2018-12-16T23:01:52.982Z,74.63
2018-12-16T23:04:21.565Z,74.17
2018-12-16T23:06:50.465Z,75.97
2018-12-16T23:09:19.079Z,73.40
2018-12-16T23:11:47.929Z,75.77
2018-12-16T23:14:16.487Z,78.33
2018-12-16T23:16:45.320Z,91.93
2018-12-16T23:19:13.875Z,81.87
2018-12-16T23:21:42.635Z,88.27
2018-12-16T23:24:11.217Z,82.73
2018-12-16T23:26:40.082Z,75.57
2018-12-16T23:29:08.606Z,80.27
2018-12-16T23:31:37.677Z,88.10
2018-12-16T23:34:06.256Z,87.53
2018-12-16T23:36:35.163Z,91.43
2018-12-16T23:39:04.139Z,89.13
2018-12-16T23:41:33.144Z,77.87
2018-12-16T23:44:01.719Z,74.13
2018-12-16T23:46:30.633Z,72.63
2018-12-16T23:48:59.173Z,68.87
2018-12-16T23:51:28.014Z,66.47
2018-12-16T23:53:56.595Z,67.33
2018-12-16T23:56:25.603Z,67.73
2018-12-16T23:58:54.158Z,67.90
